sensor_id;sensor_type;location;lat;lon;timestamp;temperature;humidity
25983;DHT22;13773;48.868;10.730;2023-02-11T00:02:02;-3.30;99.90
25983;DHT22;13773;48.868;10.730;2023-02-11T00:04:30;-3.30;99.90
25983;DHT22;13773;48.868;10.730;2023-02-11T00:06:55;-3.40;99.90
25983;DHT22;13773;48.868;10.730;2023-02-11T00:09:21;-3.40;99.90
25983;DHT22;13773;48.868;10.730;2023-02-11T00:11:47;-3.40;99.90
25983;DHT22;13773;48.868;10.730;2023-02-11T00:14:12;-3.30;99.90
25983;DHT22;13773;48.868;10.730;2023-02-11T00:16:38;-3.20;99.90
25983;DHT22;13773;48.868;10.730;2023-02-11T00:19:04;-3.20;99.90
25983;DHT22;13773;48.868;10.730;2023-02-11T00:21:31;-3.20;99.90
25983;DHT22;13773;48.868;10.730;2023-02-11T00:23:57;-3.30;99.90
25983;DHT22;13773;48.868;10.730;2023-02-11T00:26:27;-3.20;99.90
25983;DHT22;13773;48.868;10.730;2023-02-11T00:28:53;-3.40;99.90
25983;DHT22;13773;48.868;10.730;2023-02-11T00:31:21;-3.40;99.90
25983;DHT22;13773;48.868;10.730;2023-02-11T00:33:47;-3.40;99.90
25983;DHT22;13773;48.868;10.730;2023-02-11T00:36:24;-3.40;99.90
25983;DHT22;13773;48.868;10.730;2023-02-11T00:38:51;-3.40;99.90
25983;DHT22;13773;48.868;10.730;2023-02-11T00:41:17;-3.20;99.90
25983;DHT22;13773;48.868;10.730;2023-02-11T00:43:44;-3.40;99.90
25983;DHT22;13773;48.868;10.730;2023-02-11T00:46:10;-3.50;99.90
25983;DHT22;13773;48.868;10.730;2023-02-11T00:48:36;-3.50;99.90
25983;DHT22;13773;48.868;10.730;2023-02-11T00:51:02;-3.40;99.90
25983;DHT22;13773;48.868;10.730;2023-02-11T00:53:28;-3.20;99.90
25983;DHT22;13773;48.868;10.730;2023-02-11T00:55:54;-3.20;99.90
25983;DHT22;13773;48.868;10.730;2023-02-11T00:58:20;-3.50;99.90
25983;DHT22;13773;48.868;10.730;2023-02-11T01:00:47;-3.50;99.90
25983;DHT22;13773;48.868;10.730;2023-02-11T01:03:13;-3.60;99.90
25983;DHT22;13773;48.868;10.730;2023-02-11T01:05:38;-3.70;99.90
25983;DHT22;13773;48.868;10.730;2023-02-11T01:08:04;-3.60;99.90
25983;DHT22;13773;48.868;10.730;2023-02-11T01:10:30;-3.50;99.90
25983;DHT22;13773;48.868;10.730;2023-02-11T01:12:56;-3.40;99.90
25983;DHT22;13773;48.868;10.730;2023-02-11T01:15:22;-3.20;99.90
25983;DHT22;13773;48.868;10.730;2023-02-11T01:17:47;-3.50;99.90
25983;DHT22;13773;48.868;10.730;2023-02-11T01:20:16;-3.70;99.90
25983;DHT22;13773;48.868;10.730;2023-02-11T01:22:42;-3.90;99.90
25983;DHT22;13773;48.868;10.730;2023-02-11T01:25:08;-4.10;99.90
25983;DHT22;13773;48.868;10.730;2023-02-11T01:27:34;-4.20;99.90
25983;DHT22;13773;48.868;10.730;2023-02-11T01:30:01;-4.30;99.90
25983;DHT22;13773;48.868;10.730;2023-02-11T01:32:26;-4.20;99.90
25983;DHT22;13773;48.868;10.730;2023-02-11T01:34:52;-4.10;99.90
25983;DHT22;13773;48.868;10.730;2023-02-11T01:37:18;-4.30;99.90
25983;DHT22;13773;48.868;10.730;2023-02-11T01:39:43;-4.30;99.90
25983;DHT22;13773;48.868;10.730;2023-02-11T01:42:19;-4.30;99.90
25983;DHT22;13773;48.868;10.730;2023-02-11T01:44:48;-4.20;99.90
25983;DHT22;13773;48.868;10.730;2023-02-11T01:47:15;-4.00;99.90
25983;DHT22;13773;48.868;10.730;2023-02-11T01:50:00;-4.00;99.90
25983;DHT22;13773;48.868;10.730;2023-02-11T01:52:34;-4.00;99.90
25983;DHT22;13773;48.868;10.730;2023-02-11T01:55:10;-4.00;99.90
25983;DHT22;13773;48.868;10.730;2023-02-11T01:57:57;-3.90;99.90
25983;DHT22;13773;48.868;10.730;2023-02-11T02:00:36;-3.80;99.90
25983;DHT22;13773;48.868;10.730;2023-02-11T02:06:22;-3.70;99.90
25983;DHT22;13773;48.868;10.730;2023-02-11T02:09:16;-3.50;99.90
25983;DHT22;13773;48.868;10.730;2023-02-11T02:11:40;-3.30;99.90
25983;DHT22;13773;48.868;10.730;2023-02-11T02:14:05;-3.40;99.90
25983;DHT22;13773;48.868;10.730;2023-02-11T02:16:34;-3.50;99.90
25983;DHT22;13773;48.868;10.730;2023-02-11T02:22:38;-3.70;99.90
25983;DHT22;13773;48.868;10.730;2023-02-11T02:31:22;-3.70;99.90
25983;DHT22;13773;48.868;10.730;2023-02-11T02:34:11;-3.70;99.90
25983;DHT22;13773;48.868;10.730;2023-02-11T02:37:09;-3.00;99.90
25983;DHT22;13773;48.868;10.730;2023-02-11T02:39:37;-3.10;99.90
25983;DHT22;13773;48.868;10.730;2023-02-11T02:42:04;-2.90;99.90
25983;DHT22;13773;48.868;10.730;2023-02-11T02:44:30;-3.00;99.90
25983;DHT22;13773;48.868;10.730;2023-02-11T02:46:56;-2.90;99.90
25983;DHT22;13773;48.868;10.730;2023-02-11T02:49:22;-3.10;99.90
25983;DHT22;13773;48.868;10.730;2023-02-11T03:09:13;-2.60;99.90
25983;DHT22;13773;48.868;10.730;2023-02-11T03:11:39;-2.60;99.90
25983;DHT22;13773;48.868;10.730;2023-02-11T03:14:08;-2.60;99.90
25983;DHT22;13773;48.868;10.730;2023-02-11T03:16:35;-2.60;99.90
25983;DHT22;13773;48.868;10.730;2023-02-11T03:19:18;-2.50;99.90
25983;DHT22;13773;48.868;10.730;2023-02-11T03:21:46;-2.50;99.90
25983;DHT22;13773;48.868;10.730;2023-02-11T03:24:23;-2.60;99.90
25983;DHT22;13773;48.868;10.730;2023-02-11T03:26:55;-2.60;99.90
25983;DHT22;13773;48.868;10.730;2023-02-11T03:29:33;-2.80;99.90
25983;DHT22;13773;48.868;10.730;2023-02-11T03:32:07;-2.90;99.90
25983;DHT22;13773;48.868;10.730;2023-02-11T03:34:45;-2.90;99.90
25983;DHT22;13773;48.868;10.730;2023-02-11T03:37:26;-2.70;99.90
25983;DHT22;13773;48.868;10.730;2023-02-11T03:39:59;-2.90;99.90
25983;DHT22;13773;48.868;10.730;2023-02-11T03:42:30;-3.00;99.90
25983;DHT22;13773;48.868;10.730;2023-02-11T03:45:05;-3.00;99.90
25983;DHT22;13773;48.868;10.730;2023-02-11T03:47:34;-3.00;99.90
25983;DHT22;13773;48.868;10.730;2023-02-11T03:50:03;-3.00;99.90
25983;DHT22;13773;48.868;10.730;2023-02-11T03:52:31;-2.90;99.90
25983;DHT22;13773;48.868;10.730;2023-02-11T03:54:59;-2.80;99.90
25983;DHT22;13773;48.868;10.730;2023-02-11T03:57:26;-2.80;99.90
25983;DHT22;13773;48.868;10.730;2023-02-11T03:59:56;-2.70;99.90
25983;DHT22;13773;48.868;10.730;2023-02-11T04:02:26;-2.60;99.90
25983;DHT22;13773;48.868;10.730;2023-02-11T04:04:52;-2.60;99.90
25983;DHT22;13773;48.868;10.730;2023-02-11T04:07:18;-2.50;99.90
25983;DHT22;13773;48.868;10.730;2023-02-11T04:09:44;-2.40;99.90
25983;DHT22;13773;48.868;10.730;2023-02-11T04:12:09;-2.30;99.90
25983;DHT22;13773;48.868;10.730;2023-02-11T04:14:35;-2.20;99.90
25983;DHT22;13773;48.868;10.730;2023-02-11T04:17:01;-2.20;99.90
25983;DHT22;13773;48.868;10.730;2023-02-11T04:19:28;-2.00;99.90
25983;DHT22;13773;48.868;10.730;2023-02-11T04:21:53;-1.80;99.90
25983;DHT22;13773;48.868;10.730;2023-02-11T04:24:19;-2.00;99.90
25983;DHT22;13773;48.868;10.730;2023-02-11T04:26:45;-1.90;99.90
25983;DHT22;13773;48.868;10.730;2023-02-11T04:29:10;-1.80;99.90
25983;DHT22;13773;48.868;10.730;2023-02-11T04:31:36;-1.80;99.90
25983;DHT22;13773;48.868;10.730;2023-02-11T04:34:01;-1.70;99.90
25983;DHT22;13773;48.868;10.730;2023-02-11T04:36:27;-1.70;99.90
25983;DHT22;13773;48.868;10.730;2023-02-11T04:38:53;-1.70;99.90
25983;DHT22;13773;48.868;10.730;2023-02-11T04:41:18;-1.60;99.90
25983;DHT22;13773;48.868;10.730;2023-02-11T04:43:44;-1.60;99.90
25983;DHT22;13773;48.868;10.730;2023-02-11T04:46:10;-1.50;99.90
25983;DHT22;13773;48.868;10.730;2023-02-11T04:48:35;-1.40;99.90
25983;DHT22;13773;48.868;10.730;2023-02-11T04:51:01;-1.50;99.90
25983;DHT22;13773;48.868;10.730;2023-02-11T04:53:27;-1.50;99.90
25983;DHT22;13773;48.868;10.730;2023-02-11T04:55:53;-1.50;99.90
25983;DHT22;13773;48.868;10.730;2023-02-11T04:58:19;-1.40;99.90
25983;DHT22;13773;48.868;10.730;2023-02-11T05:00:45;-1.40;99.90
25983;DHT22;13773;48.868;10.730;2023-02-11T05:03:11;-1.40;99.90
25983;DHT22;13773;48.868;10.730;2023-02-11T05:05:38;-1.50;99.90
25983;DHT22;13773;48.868;10.730;2023-02-11T05:08:05;-1.40;99.90
25983;DHT22;13773;48.868;10.730;2023-02-11T05:10:31;-1.60;99.90
25983;DHT22;13773;48.868;10.730;2023-02-11T05:12:56;-1.60;99.90
25983;DHT22;13773;48.868;10.730;2023-02-11T05:15:22;-1.50;99.90
25983;DHT22;13773;48.868;10.730;2023-02-11T05:17:48;-1.60;99.90
25983;DHT22;13773;48.868;10.730;2023-02-11T05:20:14;-1.50;99.90
25983;DHT22;13773;48.868;10.730;2023-02-11T05:22:40;-1.60;99.90
25983;DHT22;13773;48.868;10.730;2023-02-11T05:25:06;-1.50;99.90
25983;DHT22;13773;48.868;10.730;2023-02-11T05:27:31;-1.50;99.90
25983;DHT22;13773;48.868;10.730;2023-02-11T05:29:57;-1.40;99.90
25983;DHT22;13773;48.868;10.730;2023-02-11T05:32:23;-1.40;99.90
25983;DHT22;13773;48.868;10.730;2023-02-11T05:34:48;-1.30;99.90
25983;DHT22;13773;48.868;10.730;2023-02-11T05:37:15;-1.20;99.90
25983;DHT22;13773;48.868;10.730;2023-02-11T05:39:40;-1.20;99.90
25983;DHT22;13773;48.868;10.730;2023-02-11T05:42:06;-1.00;99.90
25983;DHT22;13773;48.868;10.730;2023-02-11T05:44:32;-1.10;99.90
25983;DHT22;13773;48.868;10.730;2023-02-11T05:46:57;-1.10;99.90
25983;DHT22;13773;48.868;10.730;2023-02-11T05:49:23;-1.10;99.90
25983;DHT22;13773;48.868;10.730;2023-02-11T05:51:49;-1.00;99.90
25983;DHT22;13773;48.868;10.730;2023-02-11T05:54:14;-1.00;99.90
25983;DHT22;13773;48.868;10.730;2023-02-11T05:56:41;-0.90;99.90
25983;DHT22;13773;48.868;10.730;2023-02-11T05:59:06;-0.90;99.90
25983;DHT22;13773;48.868;10.730;2023-02-11T06:01:32;-0.90;99.90
25983;DHT22;13773;48.868;10.730;2023-02-11T06:03:58;-0.90;99.90
25983;DHT22;13773;48.868;10.730;2023-02-11T06:06:24;-0.80;99.90
25983;DHT22;13773;48.868;10.730;2023-02-11T06:08:50;-0.80;99.90
25983;DHT22;13773;48.868;10.730;2023-02-11T06:11:16;-0.80;99.90
25983;DHT22;13773;48.868;10.730;2023-02-11T06:13:42;-0.80;99.90
25983;DHT22;13773;48.868;10.730;2023-02-11T06:16:08;-0.70;99.90
25983;DHT22;13773;48.868;10.730;2023-02-11T06:18:34;-0.80;99.90
25983;DHT22;13773;48.868;10.730;2023-02-11T06:20:59;-0.80;99.90
25983;DHT22;13773;48.868;10.730;2023-02-11T06:23:25;-0.60;99.90
25983;DHT22;13773;48.868;10.730;2023-02-11T06:25:51;-0.60;99.90
25983;DHT22;13773;48.868;10.730;2023-02-11T06:28:17;-0.40;99.90
25983;DHT22;13773;48.868;10.730;2023-02-11T06:30:43;-0.60;99.90
25983;DHT22;13773;48.868;10.730;2023-02-11T06:33:09;-0.60;99.90
25983;DHT22;13773;48.868;10.730;2023-02-11T06:35:37;-0.30;99.90
25983;DHT22;13773;48.868;10.730;2023-02-11T06:38:03;-0.60;99.90
25983;DHT22;13773;48.868;10.730;2023-02-11T06:40:29;-0.50;99.90
25983;DHT22;13773;48.868;10.730;2023-02-11T06:42:55;-0.50;99.90
25983;DHT22;13773;48.868;10.730;2023-02-11T06:45:20;-0.50;99.90
25983;DHT22;13773;48.868;10.730;2023-02-11T06:47:46;-0.50;99.90
25983;DHT22;13773;48.868;10.730;2023-02-11T06:50:13;-0.50;99.90
25983;DHT22;13773;48.868;10.730;2023-02-11T06:52:39;-0.50;99.90
25983;DHT22;13773;48.868;10.730;2023-02-11T06:55:05;-0.50;99.90
25983;DHT22;13773;48.868;10.730;2023-02-11T06:57:31;-0.40;99.90
25983;DHT22;13773;48.868;10.730;2023-02-11T06:59:57;-0.40;99.90
25983;DHT22;13773;48.868;10.730;2023-02-11T07:02:22;-0.40;99.90
25983;DHT22;13773;48.868;10.730;2023-02-11T07:04:48;-0.10;99.90
25983;DHT22;13773;48.868;10.730;2023-02-11T07:07:14;-0.30;99.90
25983;DHT22;13773;48.868;10.730;2023-02-11T07:09:40;-0.30;99.90
25983;DHT22;13773;48.868;10.730;2023-02-11T07:12:07;-0.30;99.90
25983;DHT22;13773;48.868;10.730;2023-02-11T07:14:33;-0.20;99.90
25983;DHT22;13773;48.868;10.730;2023-02-11T07:16:59;-0.10;99.90
25983;DHT22;13773;48.868;10.730;2023-02-11T07:19:24;0.00;99.90
25983;DHT22;13773;48.868;10.730;2023-02-11T07:21:50;0.00;99.90
25983;DHT22;13773;48.868;10.730;2023-02-11T07:24:16;0.10;99.90
25983;DHT22;13773;48.868;10.730;2023-02-11T07:26:41;0.20;99.90
25983;DHT22;13773;48.868;10.730;2023-02-11T07:29:07;0.20;99.90
25983;DHT22;13773;48.868;10.730;2023-02-11T07:31:33;0.20;99.90
25983;DHT22;13773;48.868;10.730;2023-02-11T07:34:00;0.20;99.90
25983;DHT22;13773;48.868;10.730;2023-02-11T07:36:28;0.20;99.90
25983;DHT22;13773;48.868;10.730;2023-02-11T07:38:54;0.20;99.90
25983;DHT22;13773;48.868;10.730;2023-02-11T07:41:21;0.20;99.90
25983;DHT22;13773;48.868;10.730;2023-02-11T07:43:47;0.20;99.90
25983;DHT22;13773;48.868;10.730;2023-02-11T07:46:22;0.20;99.90
25983;DHT22;13773;48.868;10.730;2023-02-11T07:48:48;0.30;99.90
25983;DHT22;13773;48.868;10.730;2023-02-11T07:51:17;0.60;99.90
25983;DHT22;13773;48.868;10.730;2023-02-11T07:53:43;0.40;99.90
25983;DHT22;13773;48.868;10.730;2023-02-11T07:56:10;0.50;99.90
25983;DHT22;13773;48.868;10.730;2023-02-11T07:58:36;0.60;99.90
25983;DHT22;13773;48.868;10.730;2023-02-11T08:01:03;0.80;99.90
25983;DHT22;13773;48.868;10.730;2023-02-11T08:03:29;2.90;99.90
25983;DHT22;13773;48.868;10.730;2023-02-11T08:05:55;1.00;99.90
25983;DHT22;13773;48.868;10.730;2023-02-11T08:08:21;1.10;99.90
25983;DHT22;13773;48.868;10.730;2023-02-11T08:10:46;1.10;99.90
25983;DHT22;13773;48.868;10.730;2023-02-11T08:13:12;1.40;99.90
25983;DHT22;13773;48.868;10.730;2023-02-11T08:15:38;1.00;99.90
25983;DHT22;13773;48.868;10.730;2023-02-11T08:18:04;1.20;99.90
25983;DHT22;13773;48.868;10.730;2023-02-11T08:20:29;1.20;99.90
25983;DHT22;13773;48.868;10.730;2023-02-11T08:22:55;1.30;99.90
25983;DHT22;13773;48.868;10.730;2023-02-11T08:25:21;1.50;99.90
25983;DHT22;13773;48.868;10.730;2023-02-11T08:27:46;1.60;99.90
25983;DHT22;13773;48.868;10.730;2023-02-11T08:30:12;2.00;99.90
25983;DHT22;13773;48.868;10.730;2023-02-11T08:32:38;1.90;99.90
25983;DHT22;13773;48.868;10.730;2023-02-11T08:35:05;2.00;99.90
25983;DHT22;13773;48.868;10.730;2023-02-11T08:37:33;2.10;99.90
25983;DHT22;13773;48.868;10.730;2023-02-11T08:39:58;2.40;99.90
25983;DHT22;13773;48.868;10.730;2023-02-11T08:42:25;2.60;99.90
25983;DHT22;13773;48.868;10.730;2023-02-11T08:44:50;2.60;99.90
25983;DHT22;13773;48.868;10.730;2023-02-11T08:47:16;2.80;99.90
25983;DHT22;13773;48.868;10.730;2023-02-11T08:49:42;2.70;99.90
25983;DHT22;13773;48.868;10.730;2023-02-11T08:52:08;2.90;99.90
25983;DHT22;13773;48.868;10.730;2023-02-11T08:54:33;2.80;99.90
25983;DHT22;13773;48.868;10.730;2023-02-11T08:56:59;2.80;99.90
25983;DHT22;13773;48.868;10.730;2023-02-11T08:59:26;2.60;99.90
25983;DHT22;13773;48.868;10.730;2023-02-11T09:01:52;2.40;99.90
25983;DHT22;13773;48.868;10.730;2023-02-11T09:04:18;2.20;99.90
25983;DHT22;13773;48.868;10.730;2023-02-11T09:06:44;2.10;99.90
25983;DHT22;13773;48.868;10.730;2023-02-11T09:09:11;2.40;99.90
25983;DHT22;13773;48.868;10.730;2023-02-11T09:11:39;2.50;99.90
25983;DHT22;13773;48.868;10.730;2023-02-11T09:14:06;2.50;99.90
25983;DHT22;13773;48.868;10.730;2023-02-11T09:16:35;2.50;99.90
25983;DHT22;13773;48.868;10.730;2023-02-11T09:19:02;2.70;99.90
25983;DHT22;13773;48.868;10.730;2023-02-11T09:21:28;2.70;99.90
25983;DHT22;13773;48.868;10.730;2023-02-11T09:23:55;3.00;99.90
25983;DHT22;13773;48.868;10.730;2023-02-11T09:26:29;3.40;99.90
25983;DHT22;13773;48.868;10.730;2023-02-11T09:28:55;3.70;99.90
25983;DHT22;13773;48.868;10.730;2023-02-11T09:31:23;3.80;99.90
25983;DHT22;13773;48.868;10.730;2023-02-11T09:33:52;3.50;99.90
25983;DHT22;13773;48.868;10.730;2023-02-11T09:36:23;3.40;99.90
25983;DHT22;13773;48.868;10.730;2023-02-11T09:38:49;3.60;99.90
25983;DHT22;13773;48.868;10.730;2023-02-11T09:44:25;3.50;99.90
25983;DHT22;13773;48.868;10.730;2023-02-11T09:47:22;3.60;99.90
25983;DHT22;13773;48.868;10.730;2023-02-11T09:49:51;3.60;99.90
25983;DHT22;13773;48.868;10.730;2023-02-11T09:52:29;3.50;99.90
25983;DHT22;13773;48.868;10.730;2023-02-11T09:54:59;3.30;99.90
25983;DHT22;13773;48.868;10.730;2023-02-11T09:57:32;3.40;99.90
25983;DHT22;13773;48.868;10.730;2023-02-11T09:59:59;3.70;99.90
25983;DHT22;13773;48.868;10.730;2023-02-11T10:05:30;3.80;99.90
25983;DHT22;13773;48.868;10.730;2023-02-11T10:10:50;3.70;99.90
25983;DHT22;13773;48.868;10.730;2023-02-11T10:16:42;3.60;99.90
25983;DHT22;13773;48.868;10.730;2023-02-11T10:22:07;3.60;99.90
25983;DHT22;13773;48.868;10.730;2023-02-11T10:24:35;3.60;99.90
25983;DHT22;13773;48.868;10.730;2023-02-11T10:27:15;3.60;99.90
25983;DHT22;13773;48.868;10.730;2023-02-11T10:29:50;3.70;99.90
25983;DHT22;13773;48.868;10.730;2023-02-11T10:34:48;3.70;99.90
25983;DHT22;13773;48.868;10.730;2023-02-11T10:37:14;3.80;99.90
25983;DHT22;13773;48.868;10.730;2023-02-11T10:39:40;3.90;99.90
25983;DHT22;13773;48.868;10.730;2023-02-11T10:42:11;3.70;99.90
25983;DHT22;13773;48.868;10.730;2023-02-11T10:44:43;3.60;99.90
25983;DHT22;13773;48.868;10.730;2023-02-11T10:47:19;3.70;99.90
25983;DHT22;13773;48.868;10.730;2023-02-11T10:49:49;3.80;99.90
25983;DHT22;13773;48.868;10.730;2023-02-11T10:52:24;4.10;99.90
25983;DHT22;13773;48.868;10.730;2023-02-11T10:55:15;4.20;99.90
25983;DHT22;13773;48.868;10.730;2023-02-11T10:57:52;4.20;99.90
25983;DHT22;13773;48.868;10.730;2023-02-11T11:02:55;4.30;99.90
25983;DHT22;13773;48.868;10.730;2023-02-11T11:05:37;4.50;99.90
25983;DHT22;13773;48.868;10.730;2023-02-11T11:08:09;4.40;99.90
25983;DHT22;13773;48.868;10.730;2023-02-11T11:10:43;4.60;99.90
25983;DHT22;13773;48.868;10.730;2023-02-11T11:13:34;4.50;99.90
25983;DHT22;13773;48.868;10.730;2023-02-11T11:18:37;4.60;99.90
25983;DHT22;13773;48.868;10.730;2023-02-11T11:21:25;4.30;99.90
25983;DHT22;13773;48.868;10.730;2023-02-11T11:23:58;4.30;99.90
25983;DHT22;13773;48.868;10.730;2023-02-11T11:26:38;4.30;99.90
25983;DHT22;13773;48.868;10.730;2023-02-11T11:29:16;4.20;99.90
25983;DHT22;13773;48.868;10.730;2023-02-11T11:31:59;4.30;99.90
25983;DHT22;13773;48.868;10.730;2023-02-11T11:34:40;3.30;99.90
25983;DHT22;13773;48.868;10.730;2023-02-11T11:37:26;4.30;99.90
25983;DHT22;13773;48.868;10.730;2023-02-11T11:40:09;4.20;99.90
25983;DHT22;13773;48.868;10.730;2023-02-11T11:42:37;4.00;99.90
25983;DHT22;13773;48.868;10.730;2023-02-11T11:50:22;4.20;99.90
25983;DHT22;13773;48.868;10.730;2023-02-11T11:53:00;4.40;99.90
25983;DHT22;13773;48.868;10.730;2023-02-11T11:55:44;4.70;99.90
25983;DHT22;13773;48.868;10.730;2023-02-11T11:58:17;5.10;99.90
25983;DHT22;13773;48.868;10.730;2023-02-11T12:14:57;5.10;99.90
25983;DHT22;13773;48.868;10.730;2023-02-11T12:20:20;4.70;99.90
25983;DHT22;13773;48.868;10.730;2023-02-11T12:29:01;4.80;99.90
25983;DHT22;13773;48.868;10.730;2023-02-11T12:37:25;5.60;99.90
25983;DHT22;13773;48.868;10.730;2023-02-11T12:40:00;5.90;99.90
25983;DHT22;13773;48.868;10.730;2023-02-11T12:46:26;6.50;99.90
25983;DHT22;13773;48.868;10.730;2023-02-11T12:49:20;6.00;99.90
25983;DHT22;13773;48.868;10.730;2023-02-11T12:54:24;5.70;99.90
25983;DHT22;13773;48.868;10.730;2023-02-11T12:56:59;5.70;99.90
25983;DHT22;13773;48.868;10.730;2023-02-11T13:05:32;5.60;99.90
25983;DHT22;13773;48.868;10.730;2023-02-11T13:08:33;5.50;99.90
25983;DHT22;13773;48.868;10.730;2023-02-11T13:11:19;5.60;99.90
25983;DHT22;13773;48.868;10.730;2023-02-11T13:13:51;5.80;99.90
25983;DHT22;13773;48.868;10.730;2023-02-11T13:19:20;5.80;99.90
25983;DHT22;13773;48.868;10.730;2023-02-11T13:22:06;6.10;99.90
25983;DHT22;13773;48.868;10.730;2023-02-11T13:24:42;6.30;99.90
25983;DHT22;13773;48.868;10.730;2023-02-11T13:30:15;6.20;99.90
25983;DHT22;13773;48.868;10.730;2023-02-11T13:35:48;6.00;99.90
25983;DHT22;13773;48.868;10.730;2023-02-11T13:38:23;6.00;99.90
25983;DHT22;13773;48.868;10.730;2023-02-11T13:43:40;6.00;99.90
25983;DHT22;13773;48.868;10.730;2023-02-11T13:46:11;4.80;99.90
25983;DHT22;13773;48.868;10.730;2023-02-11T13:48:48;6.00;99.90
25983;DHT22;13773;48.868;10.730;2023-02-11T13:51:17;6.00;99.90
25983;DHT22;13773;48.868;10.730;2023-02-11T13:53:47;5.90;99.90
25983;DHT22;13773;48.868;10.730;2023-02-11T13:56:43;5.90;99.90
25983;DHT22;13773;48.868;10.730;2023-02-11T14:02:02;5.80;99.90
25983;DHT22;13773;48.868;10.730;2023-02-11T14:16:20;3.50;99.90
25983;DHT22;13773;48.868;10.730;2023-02-11T14:21:19;5.70;99.90
25983;DHT22;13773;48.868;10.730;2023-02-11T14:23:47;5.70;99.90
25983;DHT22;13773;48.868;10.730;2023-02-11T14:28:52;5.60;99.90
25983;DHT22;13773;48.868;10.730;2023-02-11T14:31:27;5.60;99.90
25983;DHT22;13773;48.868;10.730;2023-02-11T14:41:48;5.40;99.90
25983;DHT22;13773;48.868;10.730;2023-02-11T14:44:26;5.40;99.90
25983;DHT22;13773;48.868;10.730;2023-02-11T14:46:53;5.40;99.90
25983;DHT22;13773;48.868;10.730;2023-02-11T14:49:27;5.40;99.90
25983;DHT22;13773;48.868;10.730;2023-02-11T14:52:05;5.40;99.90
25983;DHT22;13773;48.868;10.730;2023-02-11T14:54:32;5.50;99.90
25983;DHT22;13773;48.868;10.730;2023-02-11T14:57:16;5.50;99.90
25983;DHT22;13773;48.868;10.730;2023-02-11T14:59:55;5.40;99.90
25983;DHT22;13773;48.868;10.730;2023-02-11T15:02:28;5.40;99.90
25983;DHT22;13773;48.868;10.730;2023-02-11T15:05:16;5.30;99.90
25983;DHT22;13773;48.868;10.730;2023-02-11T15:08:03;5.30;99.90
25983;DHT22;13773;48.868;10.730;2023-02-11T15:10:37;5.30;99.90
25983;DHT22;13773;48.868;10.730;2023-02-11T15:13:05;5.30;99.90
25983;DHT22;13773;48.868;10.730;2023-02-11T15:15:32;5.30;99.90
25983;DHT22;13773;48.868;10.730;2023-02-11T15:18:02;5.20;99.90
25983;DHT22;13773;48.868;10.730;2023-02-11T15:20:30;5.20;99.90
25983;DHT22;13773;48.868;10.730;2023-02-11T15:23:00;5.20;99.90
25983;DHT22;13773;48.868;10.730;2023-02-11T15:25:26;5.20;99.90
25983;DHT22;13773;48.868;10.730;2023-02-11T15:27:55;5.10;99.90
25983;DHT22;13773;48.868;10.730;2023-02-11T15:32:52;5.10;99.90
25983;DHT22;13773;48.868;10.730;2023-02-11T15:35:24;5.00;99.90
25983;DHT22;13773;48.868;10.730;2023-02-11T15:37:53;5.00;99.90
25983;DHT22;13773;48.868;10.730;2023-02-11T15:40:22;5.00;99.90
25983;DHT22;13773;48.868;10.730;2023-02-11T15:43:00;5.00;99.90
25983;DHT22;13773;48.868;10.730;2023-02-11T15:45:42;4.90;99.90
25983;DHT22;13773;48.868;10.730;2023-02-11T15:48:15;4.90;99.90
25983;DHT22;13773;48.868;10.730;2023-02-11T15:50:47;4.90;99.90
25983;DHT22;13773;48.868;10.730;2023-02-11T15:55:53;4.90;99.90
25983;DHT22;13773;48.868;10.730;2023-02-11T15:58:22;4.80;99.90
25983;DHT22;13773;48.868;10.730;2023-02-11T16:00:50;4.80;99.90
25983;DHT22;13773;48.868;10.730;2023-02-11T16:03:24;4.70;99.90
25983;DHT22;13773;48.868;10.730;2023-02-11T16:05:53;4.70;99.90
25983;DHT22;13773;48.868;10.730;2023-02-11T16:08:27;4.70;99.90
25983;DHT22;13773;48.868;10.730;2023-02-11T16:11:03;4.60;99.90
25983;DHT22;13773;48.868;10.730;2023-02-11T16:13:44;4.60;99.90
25983;DHT22;13773;48.868;10.730;2023-02-11T16:16:24;4.60;99.90
25983;DHT22;13773;48.868;10.730;2023-02-11T16:18:58;4.60;99.90
25983;DHT22;13773;48.868;10.730;2023-02-11T16:21:35;4.50;99.90
25983;DHT22;13773;48.868;10.730;2023-02-11T16:24:04;4.50;99.90
25983;DHT22;13773;48.868;10.730;2023-02-11T16:26:36;4.40;99.90
25983;DHT22;13773;48.868;10.730;2023-02-11T16:29:13;4.40;99.90
25983;DHT22;13773;48.868;10.730;2023-02-11T16:31:42;4.40;99.90
25983;DHT22;13773;48.868;10.730;2023-02-11T16:34:18;6.00;99.90
25983;DHT22;13773;48.868;10.730;2023-02-11T16:36:44;4.40;99.90
25983;DHT22;13773;48.868;10.730;2023-02-11T16:39:10;4.30;99.90
25983;DHT22;13773;48.868;10.730;2023-02-11T16:41:36;4.30;99.90
25983;DHT22;13773;48.868;10.730;2023-02-11T16:44:02;4.40;99.90
25983;DHT22;13773;48.868;10.730;2023-02-11T16:46:28;4.30;99.90
25983;DHT22;13773;48.868;10.730;2023-02-11T16:48:55;4.30;99.90
25983;DHT22;13773;48.868;10.730;2023-02-11T16:51:22;4.30;99.90
25983;DHT22;13773;48.868;10.730;2023-02-11T16:53:47;4.30;99.90
25983;DHT22;13773;48.868;10.730;2023-02-11T16:56:15;4.30;99.90
25983;DHT22;13773;48.868;10.730;2023-02-11T16:58:41;4.20;99.90
25983;DHT22;13773;48.868;10.730;2023-02-11T17:01:07;4.20;99.90
25983;DHT22;13773;48.868;10.730;2023-02-11T17:03:33;4.20;99.90
25983;DHT22;13773;48.868;10.730;2023-02-11T17:06:09;4.20;99.90
25983;DHT22;13773;48.868;10.730;2023-02-11T17:08:36;4.20;99.90
25983;DHT22;13773;48.868;10.730;2023-02-11T17:11:02;4.20;99.90
25983;DHT22;13773;48.868;10.730;2023-02-11T17:13:28;4.10;99.90
25983;DHT22;13773;48.868;10.730;2023-02-11T17:15:53;4.10;99.90
25983;DHT22;13773;48.868;10.730;2023-02-11T17:18:19;4.10;99.90
25983;DHT22;13773;48.868;10.730;2023-02-11T17:20:45;4.10;99.90
25983;DHT22;13773;48.868;10.730;2023-02-11T17:23:11;4.00;99.90
25983;DHT22;13773;48.868;10.730;2023-02-11T17:25:37;4.00;99.90
25983;DHT22;13773;48.868;10.730;2023-02-11T17:28:04;4.00;99.90
25983;DHT22;13773;48.868;10.730;2023-02-11T17:30:30;4.00;99.90
25983;DHT22;13773;48.868;10.730;2023-02-11T17:32:56;4.00;99.90
25983;DHT22;13773;48.868;10.730;2023-02-11T17:35:21;4.00;99.90
25983;DHT22;13773;48.868;10.730;2023-02-11T17:37:47;4.00;99.90
25983;DHT22;13773;48.868;10.730;2023-02-11T17:40:14;4.00;99.90
25983;DHT22;13773;48.868;10.730;2023-02-11T17:42:40;4.00;99.90
25983;DHT22;13773;48.868;10.730;2023-02-11T17:45:06;4.00;99.90
25983;DHT22;13773;48.868;10.730;2023-02-11T17:47:32;4.00;99.90
25983;DHT22;13773;48.868;10.730;2023-02-11T17:49:58;4.00;99.90
25983;DHT22;13773;48.868;10.730;2023-02-11T17:52:24;3.90;99.90
25983;DHT22;13773;48.868;10.730;2023-02-11T17:54:52;4.00;99.90
25983;DHT22;13773;48.868;10.730;2023-02-11T17:57:19;4.00;99.90
25983;DHT22;13773;48.868;10.730;2023-02-11T17:59:45;3.90;99.90
25983;DHT22;13773;48.868;10.730;2023-02-11T18:02:11;3.90;99.90
25983;DHT22;13773;48.868;10.730;2023-02-11T18:04:37;4.00;99.90